Time;durP1;ratioP1;P1;durP2;ratioP2;P2;SDS_P1;SDS_P2;PMS_P1;PMS_P2;Temp;Humidity;BMP_temperature;BMP_pressure;BME280_temperature;BME280_humidity;BME280_pressure;Samples;Min_cycle;Max_cycle;Signal;HPM_P1;HPM_P2
2024/02/10 00:00:25;;;;;;;;;;;22.50;46.00;;;;;;3028682;19;5029;-74
2024/02/10 00:01:27;;;;;;;;;;;22.50;46.00;;;;;;3047938;19;5218;-75
2024/02/10 00:02:28;;;;;;;;;;;22.40;45.90;;;;;;3040178;19;7210;-75
2024/02/10 00:03:30;;;;;;;;;;;23.00;46.20;;;;;;3047602;19;5076;-74
2024/02/10 00:04:30;;;;;;;;;;;22.40;46.00;;;;;;3049260;19;5261;-74
2024/02/10 00:05:31;;;;;;;;;;;22.40;45.90;;;;;;3027624;19;4680;-73
2024/02/10 00:06:36;;;;;;;;;;;22.40;45.90;;;;;;3048254;19;5063;-74
2024/02/10 00:07:36;;;;;;;;;;;22.40;45.90;;;;;;3027042;19;5204;-74
2024/02/10 00:08:38;;;;;;;;;;;22.40;45.90;;;;;;3048645;19;5576;-74
2024/02/10 00:09:39;;;;;;;;;;;22.40;45.90;;;;;;3048418;19;5253;-74
2024/02/10 00:10:41;;;;;;;;;;;22.40;46.00;;;;;;3027417;19;5379;-72
2024/02/10 00:11:42;;;;;;;;;;;22.40;45.90;;;;;;3049190;19;4626;-74
2024/02/10 00:12:42;;;;;;;;;;;22.40;45.90;;;;;;3049249;19;5103;-74
2024/02/10 00:13:43;;;;;;;;;;;22.40;45.90;;;;;;3027692;19;5072;-73
2024/02/10 00:14:44;;;;;;;;;;;22.40;46.00;;;;;;3048735;19;5160;-73
2024/02/10 00:15:46;;;;;;;;;;;22.40;45.90;;;;;;3027852;19;5337;-73
2024/02/10 00:16:46;;;;;;;;;;;22.40;45.90;;;;;;3049272;19;5193;-74
2024/02/10 00:17:49;;;;;;;;;;;22.40;46.00;;;;;;3048885;19;5278;-74
2024/02/10 00:18:51;;;;;;;;;;;23.10;46.30;;;;;;3047587;19;6579;-74
2024/02/10 00:19:52;;;;;;;;;;;22.40;46.00;;;;;;3049511;19;5234;-75
2024/02/10 00:20:52;;;;;;;;;;;23.10;46.30;;;;;;3027948;19;5198;-74
2024/02/10 00:21:53;;;;;;;;;;;22.40;46.00;;;;;;3046820;19;4762;-74
2024/02/10 00:22:54;;;;;;;;;;;22.40;46.00;;;;;;3027595;19;4666;-75
2024/02/10 00:23:55;;;;;;;;;;;22.40;45.90;;;;;;3027440;19;5444;-74
2024/02/10 00:24:57;;;;;;;;;;;22.30;45.90;;;;;;3049684;19;5315;-72
2024/02/10 00:25:57;;;;;;;;;;;22.40;46.10;;;;;;3051421;19;5326;-74
2024/02/10 00:27:01;;;;;;;;;;;22.30;46.10;;;;;;3029436;19;5248;-74
2024/02/10 00:28:02;;;;;;;;;;;22.30;46.00;;;;;;3051547;19;5331;-74
2024/02/10 00:29:03;;;;;;;;;;;22.30;46.10;;;;;;3029641;19;5389;-73
2024/02/10 00:30:05;;;;;;;;;;;22.30;46.00;;;;;;3051311;19;5413;-74
2024/02/10 00:31:07;;;;;;;;;;;22.30;46.10;;;;;;3049502;19;4711;-74
2024/02/10 00:32:09;;;;;;;;;;;22.30;46.00;;;;;;3029552;19;4600;-74
2024/02/10 00:33:10;;;;;;;;;;;22.30;46.10;;;;;;3050308;19;5052;-73
2024/02/10 00:34:12;;;;;;;;;;;22.30;46.10;;;;;;3029339;19;4670;-74
2024/02/10 00:35:16;;;;;;;;;;;22.30;46.10;;;;;;3049952;19;5236;-74
2024/02/10 00:36:17;;;;;;;;;;;22.30;46.10;;;;;;3051744;19;5294;-75
2024/02/10 00:37:19;;;;;;;;;;;22.30;46.10;;;;;;3030899;19;5564;-74
2024/02/10 00:38:21;;;;;;;;;;;22.20;46.10;;;;;;3052093;19;4706;-74
2024/02/10 00:39:23;;;;;;;;;;;22.20;46.20;;;;;;3052794;19;5124;-73
2024/02/10 00:40:23;;;;;;;;;;;22.20;46.10;;;;;;3031070;19;5161;-73
2024/02/10 00:41:24;;;;;;;;;;;22.30;46.20;;;;;;3052457;19;4970;-73
2024/02/10 00:42:27;;;;;;;;;;;22.20;46.10;;;;;;3032458;19;5844;-74
2024/02/10 00:43:28;;;;;;;;;;;23.50;46.90;;;;;;3054320;19;4717;-71
2024/02/10 00:44:28;;;;;;;;;;;22.20;46.10;;;;;;3058181;19;5075;-73
2024/02/10 00:45:29;;;;;;;;;;;22.20;46.10;;;;;;3046958;19;5238;-73
2024/02/10 00:46:31;;;;;;;;;;;22.20;46.10;;;;;;3069221;19;4734;-72
2024/02/10 00:47:35;;;;;;;;;;;22.20;46.10;;;;;;3046570;19;5534;-72
2024/02/10 00:48:37;;;;;;;;;;;22.40;46.20;;;;;;3068126;19;4805;-72
2024/02/10 00:49:42;;;;;;;;;;;23.00;46.50;;;;;;3067718;19;5372;-71
2024/02/10 00:50:42;;;;;;;;;;;22.20;46.10;;;;;;3047173;19;6116;-70
2024/02/10 00:51:43;;;;;;;;;;;22.20;46.10;;;;;;3068717;19;5419;-71
2024/02/10 00:52:49;;;;;;;;;;;22.90;46.50;;;;;;3068629;19;5073;-72
2024/02/10 00:53:53;;;;;;;;;;;22.20;46.10;;;;;;3046376;19;5574;-72
2024/02/10 00:54:54;;;;;;;;;;;22.20;46.20;;;;;;3068250;19;5367;-71
2024/02/10 00:55:54;;;;;;;;;;;22.20;46.10;;;;;;3044462;19;5221;-72
2024/02/10 00:56:55;;;;;;;;;;;22.20;46.10;;;;;;3068204;19;4887;-72
2024/02/10 00:58:00;;;;;;;;;;;22.10;46.20;;;;;;3067398;19;5120;-72
2024/02/10 00:59:00;;;;;;;;;;;22.20;46.20;;;;;;3045544;19;4761;-70
2024/02/10 01:00:02;;;;;;;;;;;23.10;46.70;;;;;;3066948;19;5527;-71
2024/02/10 01:01:03;;;;;;;;;;;21.80;46.00;;;;;;3046120;19;4790;-71
2024/02/10 01:02:05;;;;;;;;;;;22.20;46.20;;;;;;3066624;19;5092;-71
2024/02/10 01:03:08;;;;;;;;;;;22.20;46.20;;;;;;3066399;19;5393;-72
2024/02/10 01:04:09;;;;;;;;;;;22.60;46.40;;;;;;3040143;19;5553;-72
2024/02/10 01:05:10;;;;;;;;;;;22.40;46.30;;;;;;3061047;19;925;-71
2024/02/10 01:06:12;;;;;;;;;;;22.20;46.10;;;;;;3055659;19;5434;-71
2024/02/10 01:07:16;;;;;;;;;;;22.20;46.20;;;;;;3055572;19;5431;-72
2024/02/10 01:08:17;;;;;;;;;;;22.20;46.20;;;;;;3055281;19;5191;-71
2024/02/10 01:09:17;;;;;;;;;;;22.10;46.10;;;;;;3032507;19;4802;-71
2024/02/10 01:10:19;;;;;;;;;;;22.40;46.30;;;;;;3051784;19;5101;-72
2024/02/10 01:11:22;;;;;;;;;;;22.20;46.10;;;;;;3052366;19;5216;-72
2024/02/10 01:12:23;;;;;;;;;;;22.10;46.10;;;;;;3029614;19;5240;-72
2024/02/10 01:13:26;;;;;;;;;;;22.10;46.10;;;;;;3050113;19;5253;-72
2024/02/10 01:14:29;;;;;;;;;;;22.10;46.20;;;;;;3028146;19;4816;-71
2024/02/10 01:15:30;;;;;;;;;;;22.10;46.20;;;;;;3049241;19;5134;-71
2024/02/10 01:16:32;;;;;;;;;;;22.10;46.20;;;;;;3049229;19;5301;-72
2024/02/10 01:17:33;;;;;;;;;;;22.10;46.20;;;;;;3027005;19;4709;-73
2024/02/10 01:18:36;;;;;;;;;;;22.10;46.20;;;;;;3048904;19;5217;-73
2024/02/10 01:19:46;;;;;;;;;;;22.90;46.60;;;;;;3027590;19;5085;-72
2024/02/10 01:20:46;;;;;;;;;;;22.10;46.30;;;;;;3048758;19;4643;-71
2024/02/10 01:21:47;;;;;;;;;;;22.50;46.40;;;;;;3047654;19;5152;-72
2024/02/10 01:22:48;;;;;;;;;;;22.10;46.30;;;;;;3047762;19;5760;-72
2024/02/10 01:23:49;;;;;;;;;;;22.10;46.20;;;;;;3048134;19;5203;-72
2024/02/10 01:24:56;;;;;;;;;;;22.20;46.30;;;;;;3026280;19;5228;-72
2024/02/10 01:25:57;;;;;;;;;;;22.20;46.30;;;;;;3047765;19;5164;-72
2024/02/10 01:26:58;;;;;;;;;;;22.10;46.30;;;;;;3047210;19;5056;-72
2024/02/10 01:28:00;;;;;;;;;;;22.10;46.20;;;;;;3025995;19;5082;-71
2024/02/10 01:29:04;;;;;;;;;;;22.10;46.30;;;;;;3046813;19;5090;-71
2024/02/10 01:30:07;;;;;;;;;;;22.10;46.30;;;;;;3047637;19;5269;-73
2024/02/10 01:31:08;;;;;;;;;;;22.10;46.30;;;;;;3047362;19;5531;-71
2024/02/10 01:32:09;;;;;;;;;;;22.10;46.30;;;;;;3048046;19;815;-72
2024/02/10 01:33:11;;;;;;;;;;;22.10;46.30;;;;;;3026642;19;6576;-78
2024/02/10 01:34:15;;;;;;;;;;;22.10;46.30;;;;;;3048322;19;5146;-75
2024/02/10 01:35:18;;;;;;;;;;;22.10;46.30;;;;;;3047908;19;5264;-74
2024/02/10 01:36:19;;;;;;;;;;;22.10;46.30;;;;;;3025824;19;5026;-75
2024/02/10 01:37:20;;;;;;;;;;;22.00;46.20;;;;;;3046804;19;5618;-74
2024/02/10 01:38:22;;;;;;;;;;;22.00;46.20;;;;;;3026206;19;5251;-76
2024/02/10 01:39:22;;;;;;;;;;;22.00;46.30;;;;;;3047194;19;5216;-74
2024/02/10 01:40:23;;;;;;;;;;;22.40;46.50;;;;;;3047649;19;4626;-75
2024/02/10 01:41:26;;;;;;;;;;;22.00;46.30;;;;;;3026077;19;4992;-75
2024/02/10 01:42:39;;;;;;;;;;;22.00;46.30;;;;;;3048228;19;5180;-74
2024/02/10 01:43:41;;;;;;;;;;;22.40;46.50;;;;;;3028226;19;5708;-74
2024/02/10 01:44:45;;;;;;;;;;;22.00;46.30;;;;;;3051593;19;5232;-74
2024/02/10 01:45:46;;;;;;;;;;;22.00;46.30;;;;;;3050931;19;5653;-75
2024/02/10 01:46:47;;;;;;;;;;;22.00;46.40;;;;;;3048261;19;6201;-75
2024/02/10 01:47:47;;;;;;;;;;;22.00;46.40;;;;;;3050110;19;5644;-75
2024/02/10 01:48:49;;;;;;;;;;;22.00;46.40;;;;;;3029598;19;4779;-75
2024/02/10 01:49:50;;;;;;;;;;;22.00;46.40;;;;;;3049929;19;6678;-75
2024/02/10 01:50:50;;;;;;;;;;;22.00;46.40;;;;;;3050381;19;5327;-76
2024/02/10 01:51:51;;;;;;;;;;;22.00;46.40;;;;;;3028890;19;5231;-75
2024/02/10 01:52:52;;;;;;;;;;;22.00;46.40;;;;;;3050431;19;5158;-76
2024/02/10 01:53:52;;;;;;;;;;;22.00;46.40;;;;;;3050411;19;5220;-78
2024/02/10 01:54:53;;;;;;;;;;;22.00;46.40;;;;;;3029535;19;5068;-79
2024/02/10 01:55:56;;;;;;;;;;;21.90;46.40;;;;;;3050674;19;5098;-78
2024/02/10 01:56:56;;;;;;;;;;;22.00;46.40;;;;;;3029574;19;5135;-78
2024/02/10 01:58:00;;;;;;;;;;;22.50;46.70;;;;;;3050611;19;4563;-77
2024/02/10 01:59:06;;;;;;;;;;;21.90;46.40;;;;;;3050671;19;5192;-78
2024/02/10 02:00:08;;;;;;;;;;;21.90;46.40;;;;;;3029174;19;5328;-80
2024/02/10 02:01:10;;;;;;;;;;;21.90;46.40;;;;;;3050497;19;5224;-78
2024/02/10 02:02:14;;;;;;;;;;;21.90;46.40;;;;;;3036120;19;6410;-78
2024/02/10 02:03:15;;;;;;;;;;;22.00;46.50;;;;;;3050446;19;5206;-77
